Andalusia, AL

4:49 AM CDT on April 26, 2015 (GMT -0500)
RAWS | | Change Station
CLOSE
Current Station
Personal Weather Station
Location: Wing, AL
Elevation: 274 ft
Nearby Weather Stations

Elev 274 ft 31.09 °N, 86.55 °W | Updated 33 minutes ago

Clear
Clear
63 °F
Feels Like 63 °F
N
1
Wind Variable Wind from SSW
Gusts 4.0 mph

Today
High -- | Low -- °F
--% Chance of Precip.
Yesterday
High -- | Low -- °F
Precip. -- in
6:07 AM 7:22 PM
First Quarter, 54% visible
Pressure 29.72 in
Visibility 10.0 miles
Clouds Clear
Dew Point 63 °F
Humidity 99%
Rainfall in
Snow Depth Not available.
UV 0 out of 12
Pollen .70 out of 12
Air Quality Not available.
Flu Activity No Activity
METAR K79J 260856Z AUTO 00000KT 10SM CLR 19/17 A2973 RMK AO2 SLP064 T01940167 55003 $

More Conditions Fewer Conditions

Pressure 29.72 in
Visibility 10.0 miles
Clouds Clear
Dew Point 63 °F
Humidity 99%
Rainfall in
Snow Depth Not available.
UV 0 out of 12
Pollen .70 out of 12
Air Quality Not available.
Flu Activity No Activity
METAR K79J 260856Z AUTO 00000KT 10SM CLR 19/17 A2973 RMK AO2 SLP064 T01940167 55003 $

More Conditions Fewer Conditions

The full scope of the disaster following a powerful 7.8-magnitude earthquake in Nepal may not come into view for days, but global charities are already sending emergency aid. Click to see how you can help.

10-Day Weather Forecast

Almanac

Astronomy

Apr. 26, 2015 Rise Set
Actual Time
Civil Twilight
Nautical Twilight
Astronomical Twilight
Moon
Length of Visible Light
Length of Day
Tomorrow will be .
, % of the Moon is Illuminated

Today's Extremes

State Highs State Lows

Community

WunderPhotos

Upload Photos

1,816,952 photos uploaded!

WunderBlogs® & News

Nearby

Air Quality

  Air Quality AQ Index Pollutant
Not available.

Snow Depth

Station Depth Elevation

Earthquake Activity

City Distance Mag. Time & Date
Minimum magnitude displayed is 2.5.

Coastal Water Temperatures

Place Temperature

Stations

Nearby Weather Stations

Station Location Temp. Windchill Dew Point Humidity Wind Precip. Elev Updated Type